createdAt,value
2023-03-16T00:02:05.085Z,1.08
2023-03-16T00:04:32.884Z,1.17
2023-03-16T00:06:59.832Z,1.40
2023-03-16T00:09:31.444Z,1.48
2023-03-16T00:11:59.430Z,1.17
2023-03-16T00:14:26.926Z,1.10
2023-03-16T00:16:53.904Z,1.60
2023-03-16T00:19:23.183Z,1.02
2023-03-16T00:21:51.376Z,1.25
2023-03-16T00:24:20.248Z,1.40
2023-03-16T00:26:48.174Z,1.42
2023-03-16T00:29:15.182Z,1.30
2023-03-16T00:31:45.847Z,1.17
2023-03-16T00:34:12.952Z,1.23
2023-03-16T00:36:39.780Z,1.20
2023-03-16T00:39:07.196Z,1.40
2023-03-16T00:41:40.985Z,1.92
2023-03-16T00:44:09.721Z,1.60
2023-03-16T00:46:36.765Z,1.30
2023-03-16T00:49:04.308Z,1.52
2023-03-16T00:51:34.122Z,1.13
2023-03-16T00:54:01.114Z,1.13
2023-03-16T00:56:28.166Z,1.20
2023-03-16T00:58:58.058Z,1.35
2023-03-16T01:01:25.177Z,1.25
2023-03-16T01:03:52.187Z,1.40
2023-03-16T01:06:20.896Z,1.48
2023-03-16T01:08:47.685Z,1.52
2023-03-16T01:11:18.020Z,1.10
2023-03-16T01:13:47.377Z,1.30
2023-03-16T01:16:15.376Z,1.30
2023-03-16T01:18:42.424Z,1.45
2023-03-16T01:21:10.196Z,1.20
2023-03-16T01:23:37.766Z,1.48
2023-03-16T01:26:04.793Z,1.10
2023-03-16T01:28:33.725Z,1.10
2023-03-16T01:31:04.096Z,1.45
2023-03-16T01:33:31.177Z,0.85
2023-03-16T01:36:01.564Z,1.10
2023-03-16T01:38:28.906Z,0.98
2023-03-16T01:40:56.580Z,1.30
2023-03-16T01:43:27.845Z,1.27
2023-03-16T01:46:00.382Z,1.13
2023-03-16T01:48:27.924Z,1.25
2023-03-16T01:50:56.741Z,1.15
2023-03-16T01:53:26.886Z,1.45
2023-03-16T01:55:55.530Z,0.90
2023-03-16T01:58:23.276Z,1.40
2023-03-16T02:00:50.112Z,1.25
2023-03-16T02:03:20.586Z,1.38
2023-03-16T02:05:53.846Z,1.52
2023-03-16T02:08:23.006Z,1.33
2023-03-16T02:10:50.449Z,1.17
2023-03-16T02:13:17.616Z,1.15
2023-03-16T02:15:44.622Z,1.30
2023-03-16T02:18:11.784Z,1.40
2023-03-16T02:21:26.732Z,1.35
2023-03-16T02:23:53.944Z,1.10
2023-03-16T02:26:45.107Z,1.40
2023-03-16T02:29:28.474Z,1.27
2023-03-16T02:31:57.292Z,1.13
2023-03-16T02:34:25.642Z,1.52
2023-03-16T02:36:54.273Z,1.23
2023-03-16T02:39:21.148Z,1.17
2023-03-16T02:41:48.124Z,1.70
2023-03-16T02:44:24.493Z,1.25
2023-03-16T02:46:55.157Z,1.40
2023-03-16T02:49:32.133Z,1.30
2023-03-16T02:51:59.139Z,1.23
2023-03-16T02:54:25.944Z,1.15
2023-03-16T02:56:52.856Z,1.42
2023-03-16T02:59:20.136Z,1.45
2023-03-16T03:01:47.185Z,1.40
2023-03-16T03:04:14.367Z,1.35
2023-03-16T03:06:41.929Z,1.50
2023-03-16T03:09:11.840Z,1.40
2023-03-16T03:11:39.097Z,1.38
2023-03-16T03:14:06.344Z,1.50
2023-03-16T03:16:33.320Z,1.40
2023-03-16T03:19:00.457Z,2.03
2023-03-16T03:21:27.478Z,1.85
2023-03-16T03:23:55.046Z,1.50
2023-03-16T03:26:22.340Z,1.50
2023-03-16T03:28:49.667Z,1.55
2023-03-16T03:31:22.160Z,1.27
2023-03-16T03:33:49.342Z,1.60
2023-03-16T03:36:16.710Z,1.40
2023-03-16T03:38:44.478Z,1.77
2023-03-16T03:41:11.534Z,2.03
2023-03-16T03:43:38.522Z,1.70
2023-03-16T03:46:05.875Z,2.15
2023-03-16T03:48:33.890Z,1.63
2023-03-16T03:51:01.231Z,1.30
2023-03-16T03:53:28.136Z,1.65
2023-03-16T03:55:55.353Z,3.10
2023-03-16T03:58:22.285Z,1.73
2023-03-16T04:00:49.290Z,1.40
2023-03-16T04:03:17.890Z,1.77
2023-03-16T04:05:44.954Z,1.83
2023-03-16T04:08:11.886Z,1.35
2023-03-16T04:10:38.959Z,1.50
2023-03-16T04:13:05.705Z,1.70
2023-03-16T04:15:33.162Z,1.92
2023-03-16T04:18:00.105Z,1.67
2023-03-16T04:20:27.288Z,1.75
2023-03-16T04:22:58.644Z,2.13
2023-03-16T04:25:27.759Z,1.60
2023-03-16T04:27:56.988Z,2.42
2023-03-16T04:30:24.231Z,1.55
2023-03-16T04:32:52.615Z,1.73
2023-03-16T04:35:19.772Z,1.67
2023-03-16T04:37:46.755Z,1.70
2023-03-16T04:40:16.357Z,1.70
2023-03-16T04:42:47.324Z,1.90
2023-03-16T04:45:15.377Z,1.80
2023-03-16T04:47:42.366Z,2.00
2023-03-16T04:50:10.704Z,1.58
2023-03-16T04:52:37.782Z,1.77
2023-03-16T04:55:04.991Z,1.83
2023-03-16T04:57:32.509Z,2.30
2023-03-16T04:59:59.309Z,2.40
2023-03-16T05:02:26.272Z,2.13
2023-03-16T05:04:53.245Z,2.30
2023-03-16T05:07:20.040Z,1.92
2023-03-16T05:09:46.883Z,2.08
2023-03-16T05:12:14.061Z,1.92
2023-03-16T05:14:41.335Z,2.50
2023-03-16T05:17:08.427Z,2.30
2023-03-16T05:19:35.434Z,1.83
2023-03-16T05:22:02.403Z,1.98
2023-03-16T05:24:29.380Z,2.28
2023-03-16T05:26:56.332Z,2.40
2023-03-16T05:29:23.193Z,2.05
2023-03-16T05:31:50.153Z,2.13
2023-03-16T05:34:17.184Z,2.13
2023-03-16T05:36:45.239Z,2.15
2023-03-16T05:39:12.250Z,1.77
2023-03-16T05:41:39.957Z,1.85
2023-03-16T05:44:07.112Z,2.40
2023-03-16T05:46:34.596Z,1.90
2023-03-16T05:49:01.674Z,1.90
2023-03-16T05:51:28.698Z,2.20
2023-03-16T05:53:58.865Z,2.00
2023-03-16T05:56:27.454Z,2.17
2023-03-16T05:58:55.660Z,2.05
2023-03-16T06:01:23.830Z,1.88
2023-03-16T06:03:52.284Z,1.77
2023-03-16T06:06:20.042Z,2.22
2023-03-16T06:08:46.860Z,2.30
2023-03-16T06:11:14.498Z,2.30
2023-03-16T06:13:41.795Z,1.80
2023-03-16T06:16:11.494Z,1.85
2023-03-16T06:18:39.831Z,1.85
2023-03-16T06:21:07.062Z,2.00
2023-03-16T06:23:34.191Z,2.45
2023-03-16T06:26:01.403Z,2.00
2023-03-16T06:28:28.370Z,2.55
2023-03-16T06:30:58.978Z,2.05
2023-03-16T06:33:26.501Z,2.00
2023-03-16T06:35:53.611Z,2.63
2023-03-16T06:38:20.444Z,2.33
2023-03-16T06:40:53.069Z,1.80
2023-03-16T06:43:20.166Z,2.22
2023-03-16T06:45:47.430Z,2.25
2023-03-16T06:48:14.291Z,1.95
2023-03-16T06:50:41.336Z,2.50
2023-03-16T06:53:08.314Z,2.25
2023-03-16T06:55:35.033Z,2.50
2023-03-16T06:58:01.973Z,2.42
2023-03-16T07:00:29.170Z,2.20
2023-03-16T07:02:56.404Z,1.77
2023-03-16T07:05:23.253Z,2.60
2023-03-16T07:07:50.093Z,2.60
2023-03-16T07:10:18.705Z,2.88
2023-03-16T07:12:46.112Z,2.00
2023-03-16T07:15:13.609Z,2.28
2023-03-16T07:17:40.953Z,2.30
2023-03-16T07:20:10.832Z,2.22
2023-03-16T07:22:38.676Z,2.70
2023-03-16T07:25:06.606Z,2.28
2023-03-16T07:27:33.808Z,2.35
2023-03-16T07:30:00.746Z,3.00
2023-03-16T07:32:27.806Z,2.28
2023-03-16T07:34:54.856Z,2.28
2023-03-16T07:37:25.422Z,2.60
2023-03-16T07:39:52.562Z,2.13
2023-03-16T07:42:20.104Z,2.58
2023-03-16T07:44:46.893Z,2.60
2023-03-16T07:47:13.853Z,2.40
2023-03-16T07:49:41.962Z,3.45
2023-03-16T07:52:09.057Z,4.03
2023-03-16T07:54:36.107Z,3.33
2023-03-16T07:57:03.169Z,2.92
2023-03-16T07:59:30.090Z,3.00
2023-03-16T08:01:56.959Z,2.72
2023-03-16T08:04:24.193Z,2.55
2023-03-16T08:06:52.998Z,2.28
2023-03-16T08:09:20.276Z,2.47
2023-03-16T08:11:47.261Z,2.55
2023-03-16T08:14:14.233Z,2.78
2023-03-16T08:16:41.437Z,2.75
2023-03-16T08:19:08.946Z,2.50
2023-03-16T08:21:45.754Z,2.83
2023-03-16T08:24:23.274Z,2.47
2023-03-16T08:26:50.227Z,2.17
2023-03-16T08:29:18.982Z,2.78
2023-03-16T08:31:47.273Z,2.58
2023-03-16T08:34:14.090Z,2.63
2023-03-16T08:36:44.150Z,2.25
2023-03-16T08:39:12.148Z,2.85
2023-03-16T08:41:40.933Z,3.28
2023-03-16T08:44:08.021Z,2.65
2023-03-16T08:46:35.693Z,3.22
2023-03-16T08:49:03.177Z,2.95
2023-03-16T08:51:31.356Z,2.67
2023-03-16T08:53:59.052Z,3.20
2023-03-16T08:56:25.935Z,3.50
2023-03-16T08:58:53.463Z,2.75
2023-03-16T09:01:20.643Z,3.50
2023-03-16T09:03:47.753Z,2.90
2023-03-16T09:06:17.324Z,2.95
2023-03-16T09:08:45.685Z,3.55
2023-03-16T09:11:15.775Z,2.60
2023-03-16T09:13:43.754Z,4.47
2023-03-16T09:16:12.745Z,2.70
2023-03-16T09:18:40.302Z,3.22
2023-03-16T09:21:10.578Z,2.55
2023-03-16T09:23:42.120Z,2.85
2023-03-16T09:26:09.900Z,4.10
2023-03-16T09:28:39.053Z,2.38
2023-03-16T09:31:07.326Z,3.17
2023-03-16T09:33:35.540Z,2.60
2023-03-16T09:36:03.809Z,2.53
2023-03-16T09:38:32.376Z,4.07
2023-03-16T09:41:08.703Z,2.90
2023-03-16T09:43:47.589Z,2.67
2023-03-16T09:46:41.854Z,2.60
2023-03-16T09:49:11.837Z,3.53
2023-03-16T09:51:49.062Z,3.13
2023-03-16T09:54:56.799Z,4.00
2023-03-16T09:57:28.661Z,2.97
2023-03-16T10:00:00.990Z,3.72
2023-03-16T10:02:46.811Z,4.22
2023-03-16T10:05:16.230Z,2.53
2023-03-16T10:08:05.620Z,3.90
2023-03-16T10:10:41.614Z,2.65
2023-03-16T10:13:31.483Z,2.55
2023-03-16T10:16:02.819Z,2.78
2023-03-16T10:18:39.965Z,2.67
2023-03-16T10:21:13.445Z,3.22
2023-03-16T10:23:42.480Z,3.17
2023-03-16T10:26:14.078Z,2.63
2023-03-16T10:28:42.645Z,2.97
2023-03-16T10:31:11.646Z,4.63
2023-03-16T10:33:39.714Z,2.67
2023-03-16T10:36:34.884Z,3.42
2023-03-16T10:39:08.182Z,8.83
2023-03-16T10:41:37.893Z,3.38
2023-03-16T10:44:13.945Z,4.78
2023-03-16T10:46:43.101Z,3.40
2023-03-16T10:49:27.510Z,2.80
2023-03-16T10:52:00.755Z,2.75
2023-03-16T10:54:41.214Z,3.55
2023-03-16T10:57:21.065Z,3.20
2023-03-16T10:59:51.434Z,2.55
2023-03-16T11:02:23.231Z,2.83
2023-03-16T11:04:53.279Z,2.97
2023-03-16T11:07:24.358Z,3.42
2023-03-16T11:09:52.819Z,2.40
2023-03-16T11:12:30.985Z,2.92
2023-03-16T11:15:25.757Z,2.40
2023-03-16T11:17:56.284Z,2.90
2023-03-16T11:20:29.324Z,2.03
2023-03-16T11:22:57.642Z,2.25
2023-03-16T11:25:32.026Z,2.45
2023-03-16T11:28:12.242Z,2.00
2023-03-16T11:31:01.922Z,2.35
2023-03-16T11:33:31.266Z,4.25
2023-03-16T11:36:22.442Z,3.78
2023-03-16T11:39:12.982Z,2.33
2023-03-16T11:42:16.801Z,2.08
2023-03-16T11:45:03.486Z,2.03
2023-03-16T11:48:09.277Z,2.10
2023-03-16T11:50:48.285Z,3.45
2023-03-16T11:53:42.820Z,4.53
2023-03-16T11:56:15.413Z,2.72
2023-03-16T11:59:02.702Z,2.08
2023-03-16T12:01:41.069Z,2.05
2023-03-16T12:04:12.704Z,2.15
2023-03-16T12:06:48.706Z,2.45
2023-03-16T12:09:39.385Z,2.85
2023-03-16T12:12:34.494Z,2.97
2023-03-16T12:15:33.139Z,3.50
2023-03-16T12:18:09.843Z,3.42
2023-03-16T12:20:52.081Z,2.95
2023-03-16T12:23:36.157Z,2.70
2023-03-16T12:26:03.796Z,3.00
2023-03-16T12:28:33.610Z,1.90
2023-03-16T12:31:34.341Z,2.85
2023-03-16T12:34:24.578Z,3.08
2023-03-16T12:37:02.335Z,2.15
2023-03-16T12:39:51.636Z,4.88
2023-03-16T12:42:42.840Z,1.95
2023-03-16T12:45:28.469Z,2.38
2023-03-16T12:48:27.932Z,3.45
2023-03-16T12:50:58.796Z,2.90
2023-03-16T12:53:28.785Z,4.20
2023-03-16T12:55:57.441Z,2.50
2023-03-16T12:58:26.485Z,2.40
2023-03-16T13:00:59.778Z,3.10
2023-03-16T13:03:28.787Z,2.40
2023-03-16T13:05:59.192Z,2.40
2023-03-16T13:08:28.242Z,2.13
2023-03-16T13:11:06.584Z,2.40
2023-03-16T13:13:34.399Z,1.77
2023-03-16T13:16:09.647Z,2.28
2023-03-16T13:18:44.905Z,2.20
2023-03-16T13:21:21.586Z,2.22
2023-03-16T13:23:56.365Z,2.78
2023-03-16T13:26:44.065Z,2.40
2023-03-16T13:29:19.778Z,2.65
2023-03-16T13:31:47.526Z,2.47
2023-03-16T13:34:36.731Z,2.67
2023-03-16T13:37:04.319Z,2.08
2023-03-16T13:39:32.369Z,1.95
2023-03-16T13:42:00.494Z,1.98
2023-03-16T13:44:28.788Z,2.17
2023-03-16T13:46:56.359Z,1.83
2023-03-16T13:49:24.002Z,2.20
2023-03-16T13:51:51.046Z,2.83
2023-03-16T13:54:28.202Z,3.58
2023-03-16T13:57:03.120Z,2.17
2023-03-16T13:59:31.667Z,2.03
2023-03-16T14:02:04.538Z,2.45
2023-03-16T14:04:34.194Z,2.70
2023-03-16T14:07:03.923Z,3.10
2023-03-16T14:09:35.965Z,2.83
2023-03-16T14:12:03.766Z,2.60
2023-03-16T14:14:37.266Z,3.40
2023-03-16T14:17:13.774Z,2.50
2023-03-16T14:19:49.570Z,2.50
2023-03-16T14:22:20.604Z,2.60
2023-03-16T14:24:54.844Z,2.53
2023-03-16T14:27:46.491Z,2.15
2023-03-16T14:30:26.385Z,2.15
2023-03-16T14:33:25.037Z,3.15
2023-03-16T14:35:57.006Z,2.60
2023-03-16T14:38:32.250Z,2.42
2023-03-16T14:41:15.520Z,2.50
2023-03-16T14:43:48.316Z,2.45
2023-03-16T14:46:43.392Z,1.80
2023-03-16T14:49:21.287Z,3.28
2023-03-16T14:51:53.099Z,3.03
2023-03-16T14:54:22.562Z,2.35
2023-03-16T14:56:55.552Z,5.18
2023-03-16T14:59:22.597Z,3.55
2023-03-16T15:01:50.580Z,2.45
2023-03-16T15:04:31.443Z,3.03
2023-03-16T15:06:59.110Z,9.00
2023-03-16T15:09:35.434Z,3.53
2023-03-16T15:12:02.588Z,2.17
2023-03-16T15:14:48.599Z,2.60
2023-03-16T15:17:15.586Z,4.40
2023-03-16T15:19:43.302Z,2.90
2023-03-16T15:22:13.012Z,3.22
2023-03-16T15:24:40.138Z,3.97
2023-03-16T15:27:23.451Z,4.40
2023-03-16T15:29:50.395Z,5.95
2023-03-16T15:32:17.335Z,5.82
2023-03-16T15:34:46.600Z,10.15
2023-03-16T15:37:15.458Z,4.95
2023-03-16T15:39:42.605Z,6.28
2023-03-16T15:42:15.595Z,9.50
2023-03-16T15:44:43.264Z,6.93
2023-03-16T15:47:11.177Z,8.20
2023-03-16T15:49:47.247Z,7.88
2023-03-16T15:52:32.188Z,10.55
2023-03-16T15:55:04.541Z,4.70
2023-03-16T15:57:32.173Z,4.93
2023-03-16T15:59:59.447Z,6.45
2023-03-16T16:02:32.141Z,5.60
2023-03-16T16:04:59.652Z,13.40
2023-03-16T16:07:27.351Z,11.00
2023-03-16T16:09:54.366Z,6.68
2023-03-16T16:12:27.131Z,8.80
2023-03-16T16:14:56.537Z,5.50
2023-03-16T16:17:41.204Z,6.10
2023-03-16T16:20:26.483Z,5.93
2023-03-16T16:22:55.164Z,8.15
2023-03-16T16:25:24.217Z,6.50
2023-03-16T16:27:52.146Z,5.47
2023-03-16T16:30:31.358Z,6.45
2023-03-16T16:32:58.989Z,4.90
2023-03-16T16:35:28.718Z,4.68
2023-03-16T16:37:56.037Z,7.45
2023-03-16T16:40:38.159Z,8.57
2023-03-16T16:43:06.449Z,7.18
2023-03-16T16:45:33.691Z,6.72
2023-03-16T16:48:00.622Z,9.35
2023-03-16T16:50:28.619Z,5.75
2023-03-16T16:52:55.694Z,13.32
2023-03-16T16:55:23.428Z,6.40
2023-03-16T16:57:54.085Z,7.90
2023-03-16T17:00:24.178Z,6.03
2023-03-16T17:02:53.682Z,6.72
2023-03-16T17:05:24.028Z,6.80
2023-03-16T17:07:51.633Z,6.75
2023-03-16T17:10:38.128Z,11.48
2023-03-16T17:13:05.205Z,7.95
2023-03-16T17:15:33.071Z,8.98
2023-03-16T17:18:10.150Z,10.23
2023-03-16T17:20:37.034Z,9.70
2023-03-16T17:23:18.633Z,6.80
2023-03-16T17:25:45.340Z,7.43
2023-03-16T17:28:12.288Z,9.90
2023-03-16T17:30:39.263Z,7.57
2023-03-16T17:33:17.715Z,8.88
2023-03-16T17:35:45.332Z,7.85
2023-03-16T17:38:18.068Z,9.75
2023-03-16T17:40:45.827Z,9.95
2023-03-16T17:43:18.207Z,7.68
2023-03-16T17:45:47.365Z,10.63
2023-03-16T17:48:20.747Z,11.77
2023-03-16T17:50:48.723Z,10.25
2023-03-16T17:53:17.838Z,13.65
2023-03-16T17:55:49.166Z,9.48
2023-03-16T17:58:29.748Z,7.68
2023-03-16T18:00:58.650Z,8.70
2023-03-16T18:03:29.343Z,9.05
2023-03-16T18:05:57.536Z,6.70
2023-03-16T18:08:30.481Z,7.25
2023-03-16T18:11:03.957Z,7.07
2023-03-16T18:13:39.496Z,3.42
2023-03-16T18:16:07.654Z,4.72
2023-03-16T18:18:39.508Z,2.90
2023-03-16T18:21:06.336Z,7.05
2023-03-16T18:23:35.962Z,3.28
2023-03-16T18:26:07.241Z,9.35
2023-03-16T18:28:35.778Z,8.60
2023-03-16T18:31:05.232Z,6.70
2023-03-16T18:33:35.805Z,3.95
2023-03-16T18:36:18.150Z,4.72
2023-03-16T18:38:48.769Z,6.28
2023-03-16T18:41:23.786Z,5.72
2023-03-16T18:46:32.658Z,5.43
2023-03-16T18:49:03.230Z,10.85
2023-03-16T18:51:31.380Z,3.90
2023-03-16T18:53:58.682Z,3.88
2023-03-16T18:56:27.884Z,5.05
2023-03-16T18:58:56.396Z,6.35
2023-03-16T19:01:28.079Z,4.25
2023-03-16T19:03:56.484Z,3.85
2023-03-16T19:06:33.831Z,4.90
2023-03-16T19:09:20.871Z,7.20
2023-03-16T19:11:48.582Z,4.47
2023-03-16T19:14:27.129Z,4.75
2023-03-16T19:16:55.319Z,5.00
2023-03-16T19:19:24.520Z,5.32
2023-03-16T19:21:55.106Z,5.28
2023-03-16T19:24:26.781Z,5.68
2023-03-16T19:26:54.870Z,6.10
2023-03-16T19:29:31.844Z,4.15
2023-03-16T19:31:59.613Z,5.85
2023-03-16T19:34:26.622Z,5.68
2023-03-16T19:36:53.730Z,5.60
2023-03-16T19:39:21.616Z,4.72
2023-03-16T19:41:54.674Z,5.40
2023-03-16T19:44:25.542Z,6.85
2023-03-16T19:46:52.827Z,5.35
2023-03-16T19:49:22.752Z,3.67
2023-03-16T19:51:53.426Z,3.00
2023-03-16T19:54:23.927Z,2.90
2023-03-16T19:56:52.575Z,3.30
2023-03-16T19:59:20.432Z,3.90
2023-03-16T20:01:47.933Z,3.60
2023-03-16T20:04:20.418Z,2.95
2023-03-16T20:06:49.942Z,3.33
2023-03-16T20:09:18.011Z,3.75
2023-03-16T20:11:45.770Z,2.90
2023-03-16T20:14:29.654Z,3.50
2023-03-16T20:16:57.139Z,3.47
2023-03-16T20:19:24.852Z,6.30
2023-03-16T20:21:51.753Z,3.15
2023-03-16T20:24:24.676Z,3.38
2023-03-16T20:26:54.059Z,3.08
2023-03-16T20:29:34.237Z,3.15
2023-03-16T20:32:01.503Z,3.50
2023-03-16T20:34:31.610Z,4.15
2023-03-16T20:36:58.714Z,3.95
2023-03-16T20:39:25.740Z,3.10
2023-03-16T20:41:53.261Z,3.35
2023-03-16T20:44:23.769Z,3.72
2023-03-16T20:46:50.760Z,3.45
2023-03-16T20:49:25.499Z,2.78
2023-03-16T20:54:20.739Z,3.20
2023-03-16T20:56:48.291Z,3.10
2023-03-16T20:59:23.743Z,3.28
2023-03-16T21:01:52.996Z,2.75
2023-03-16T21:04:25.934Z,2.95
2023-03-16T21:06:53.152Z,2.95
2023-03-16T21:09:21.365Z,3.33
2023-03-16T21:11:48.976Z,3.13
2023-03-16T21:14:26.371Z,3.55
2023-03-16T21:16:54.701Z,3.60
2023-03-16T21:19:23.399Z,2.92
2023-03-16T21:21:50.882Z,3.15
2023-03-16T21:24:17.878Z,3.30
2023-03-16T21:26:45.518Z,2.67
2023-03-16T21:29:22.099Z,3.30
2023-03-16T21:31:49.343Z,3.15
2023-03-16T21:34:30.646Z,3.85
2023-03-16T21:36:57.521Z,3.33
2023-03-16T21:39:25.420Z,3.58
2023-03-16T21:41:53.745Z,3.03
2023-03-16T21:44:20.976Z,3.90
2023-03-16T21:46:48.621Z,3.42
2023-03-16T21:49:16.109Z,4.05
2023-03-16T21:51:43.464Z,3.78
2023-03-16T21:54:18.158Z,3.50
2023-03-16T21:56:46.091Z,3.33
2023-03-16T21:59:13.223Z,3.65
2023-03-16T22:01:58.301Z,3.17
2023-03-16T22:04:28.176Z,3.05
2023-03-16T22:06:55.215Z,3.20
2023-03-16T22:09:30.012Z,4.80
2023-03-16T22:14:23.921Z,3.53
2023-03-16T22:16:51.952Z,3.25
2023-03-16T22:19:19.177Z,3.58
2023-03-16T22:21:47.402Z,3.22
2023-03-16T22:24:18.141Z,3.00
2023-03-16T22:26:46.449Z,3.10
2023-03-16T22:29:25.526Z,3.38
2023-03-16T22:32:23.847Z,3.50
2023-03-16T22:34:56.205Z,3.33
2023-03-16T22:37:27.411Z,3.60
2023-03-16T22:39:56.683Z,3.40
2023-03-16T22:42:37.376Z,3.88
2023-03-16T22:45:14.671Z,3.38
2023-03-16T22:47:41.420Z,3.85
2023-03-16T22:50:13.385Z,3.10
2023-03-16T22:52:40.585Z,3.35
2023-03-16T22:55:09.020Z,3.60
2023-03-16T22:57:35.884Z,3.35
2023-03-16T23:00:07.206Z,3.22
2023-03-16T23:02:34.079Z,4.78
2023-03-16T23:05:01.062Z,4.40
2023-03-16T23:07:28.214Z,2.80
2023-03-16T23:09:55.845Z,3.45
2023-03-16T23:12:22.810Z,2.88
2023-03-16T23:14:49.767Z,3.22
2023-03-16T23:17:18.996Z,3.05
2023-03-16T23:19:48.265Z,2.55
2023-03-16T23:22:15.861Z,3.80
2023-03-16T23:24:43.419Z,3.03
2023-03-16T23:27:22.435Z,2.90
2023-03-16T23:29:49.661Z,3.25
2023-03-16T23:32:17.500Z,2.90
2023-03-16T23:34:44.799Z,2.97
2023-03-16T23:37:12.176Z,3.08
2023-03-16T23:39:40.074Z,3.50
2023-03-16T23:42:07.394Z,3.90
2023-03-16T23:44:34.634Z,2.92
2023-03-16T23:47:01.777Z,3.60
2023-03-16T23:49:33.036Z,2.90
2023-03-16T23:52:01.903Z,3.05
2023-03-16T23:54:31.611Z,2.80
2023-03-16T23:56:59.076Z,3.90
2023-03-16T23:59:26.770Z,2.70
